createdAt,value
2023-05-05T00:00:27.655Z,0.00
2023-05-05T00:01:27.635Z,0.00
2023-05-05T00:02:27.710Z,0.00
2023-05-05T00:03:27.775Z,0.00
2023-05-05T00:04:27.632Z,0.00
2023-05-05T00:05:27.624Z,0.00
2023-05-05T00:06:28.495Z,0.00
2023-05-05T00:07:27.600Z,0.00
2023-05-05T00:08:27.565Z,0.00
2023-05-05T00:09:27.590Z,0.00
2023-05-05T00:10:27.561Z,0.00
2023-05-05T00:11:27.542Z,0.00
2023-05-05T00:12:27.538Z,0.00
2023-05-05T00:13:27.548Z,0.00
2023-05-05T00:14:27.521Z,0.00
2023-05-05T00:15:27.513Z,0.00
2023-05-05T00:16:27.493Z,0.00
2023-05-05T00:17:27.499Z,0.00
2023-05-05T00:18:27.484Z,0.00
2023-05-05T00:19:27.444Z,0.00
2023-05-05T00:20:27.533Z,0.00
2023-05-05T00:21:27.448Z,0.00
2023-05-05T00:22:27.441Z,0.00
2023-05-05T00:23:27.422Z,0.00
2023-05-05T00:24:27.435Z,0.00
2023-05-05T00:25:27.416Z,0.00
2023-05-05T00:26:27.371Z,0.00
2023-05-05T00:27:27.369Z,0.00
2023-05-05T00:28:27.341Z,0.00
2023-05-05T00:29:27.343Z,0.00
2023-05-05T00:30:27.326Z,0.00
2023-05-05T00:31:27.373Z,0.00
2023-05-05T00:32:27.380Z,0.00
2023-05-05T00:33:27.323Z,0.00
2023-05-05T00:34:27.300Z,0.00
2023-05-05T00:35:27.307Z,0.00
2023-05-05T00:36:27.259Z,0.00
2023-05-05T00:37:27.296Z,0.00
2023-05-05T00:38:27.243Z,0.00
2023-05-05T00:39:27.286Z,0.00
2023-05-05T00:40:27.240Z,0.00
2023-05-05T00:41:27.279Z,0.00
2023-05-05T00:42:27.210Z,0.00
2023-05-05T00:43:27.215Z,0.00
2023-05-05T00:44:27.194Z,0.00
2023-05-05T00:45:27.194Z,0.00
2023-05-05T00:46:27.263Z,0.00
2023-05-05T00:47:27.190Z,0.00
2023-05-05T00:48:27.160Z,0.00
2023-05-05T00:49:27.177Z,0.00
2023-05-05T00:50:27.131Z,0.00
2023-05-05T00:51:27.181Z,0.00
2023-05-05T00:52:27.093Z,0.00
2023-05-05T00:53:27.136Z,0.00
2023-05-05T00:54:27.083Z,0.00
2023-05-05T00:55:27.066Z,0.00
2023-05-05T00:56:27.064Z,0.00
2023-05-05T00:57:27.054Z,0.00
2023-05-05T00:58:27.029Z,0.00
2023-05-05T00:59:27.026Z,0.00
2023-05-05T01:00:27.011Z,0.00
2023-05-05T01:01:27.048Z,0.00
2023-05-05T01:02:27.019Z,0.00
2023-05-05T01:03:27.150Z,0.00
2023-05-05T01:04:26.986Z,0.00
2023-05-05T01:05:27.000Z,0.00
2023-05-05T01:06:26.956Z,0.00
2023-05-05T01:07:26.935Z,0.00
2023-05-05T01:08:26.928Z,0.00
2023-05-05T01:09:26.949Z,0.00
2023-05-05T01:10:34.436Z,0.00
2023-05-05T01:11:29.666Z,0.00
2023-05-05T01:12:26.899Z,0.00
2023-05-05T01:13:28.666Z,0.00
2023-05-05T01:14:26.855Z,0.00
2023-05-05T01:15:26.866Z,0.00
2023-05-05T01:16:26.886Z,0.00
2023-05-05T01:17:26.861Z,0.00
2023-05-05T01:18:26.820Z,0.00
2023-05-05T01:19:26.822Z,0.00
2023-05-05T01:20:26.796Z,0.00
2023-05-05T01:21:26.811Z,0.00
2023-05-05T01:22:27.083Z,0.00
2023-05-05T01:23:26.786Z,0.00
2023-05-05T01:24:26.752Z,0.00
2023-05-05T01:25:26.763Z,0.00
2023-05-05T01:26:26.728Z,0.00
2023-05-05T01:27:26.737Z,0.00
2023-05-05T01:28:26.731Z,0.00
2023-05-05T01:29:26.691Z,0.00
2023-05-05T01:30:26.709Z,0.00
2023-05-05T01:31:26.807Z,0.00
2023-05-05T01:32:26.741Z,0.00
2023-05-05T01:33:26.812Z,0.00
2023-05-05T01:34:26.636Z,0.00
2023-05-05T01:35:26.643Z,0.00
2023-05-05T01:36:26.644Z,0.00
2023-05-05T01:37:26.646Z,0.00
2023-05-05T01:38:26.639Z,0.00
2023-05-05T01:39:26.593Z,0.00
2023-05-05T01:40:26.585Z,0.00
2023-05-05T01:41:26.577Z,0.00
2023-05-05T01:42:26.567Z,0.00
2023-05-05T01:43:26.849Z,0.00
2023-05-05T01:44:26.534Z,0.00
2023-05-05T01:45:26.564Z,0.00
2023-05-05T01:46:26.515Z,0.00
2023-05-05T01:47:26.576Z,0.00
2023-05-05T01:48:26.501Z,0.00
2023-05-05T01:49:26.486Z,0.00
2023-05-05T01:50:26.476Z,0.00
2023-05-05T01:51:26.474Z,0.00
2023-05-05T01:52:26.444Z,0.00
2023-05-05T01:53:27.332Z,0.00
2023-05-05T01:54:26.504Z,0.00
2023-05-05T01:55:26.439Z,0.00
2023-05-05T01:56:26.426Z,0.00
2023-05-05T01:57:26.418Z,0.00
2023-05-05T01:58:26.392Z,0.00
2023-05-05T01:59:26.392Z,0.00
2023-05-05T02:00:26.352Z,0.00
2023-05-05T02:01:26.437Z,0.00
2023-05-05T02:02:26.414Z,0.00
2023-05-05T02:03:26.440Z,0.00
2023-05-05T02:04:26.319Z,0.00
2023-05-05T02:05:26.330Z,0.00
2023-05-05T02:06:26.300Z,0.00
2023-05-05T02:07:26.321Z,0.00
2023-05-05T02:08:26.320Z,0.00
2023-05-05T02:09:26.267Z,0.00
2023-05-05T02:10:35.824Z,0.00
2023-05-05T02:11:26.393Z,0.00
2023-05-05T02:12:26.213Z,0.00
2023-05-05T02:13:34.810Z,0.00
2023-05-05T02:14:26.216Z,0.00
2023-05-05T02:15:26.226Z,0.00
2023-05-05T02:16:26.185Z,0.00
2023-05-05T02:17:26.302Z,0.00
2023-05-05T02:18:26.191Z,0.00
2023-05-05T02:19:26.167Z,0.00
2023-05-05T02:20:26.149Z,0.00
2023-05-05T02:21:26.171Z,0.00
2023-05-05T02:22:26.126Z,0.00
2023-05-05T02:23:26.133Z,0.00
2023-05-05T02:24:26.173Z,0.00
2023-05-05T02:25:26.094Z,0.00
2023-05-05T02:26:26.106Z,0.00
2023-05-05T02:27:26.090Z,0.00
2023-05-05T02:28:26.075Z,0.00
2023-05-05T02:29:26.105Z,0.00
2023-05-05T02:30:26.036Z,0.00
2023-05-05T02:31:26.110Z,0.00
2023-05-05T02:32:26.058Z,0.00
2023-05-05T02:33:26.034Z,0.00
2023-05-05T02:34:25.996Z,0.00
2023-05-05T02:35:26.020Z,0.00
2023-05-05T02:36:26.016Z,0.00
2023-05-05T02:37:25.989Z,0.00
2023-05-05T02:38:25.943Z,0.00
2023-05-05T02:39:25.976Z,0.00
2023-05-05T02:40:25.938Z,0.00
2023-05-05T02:41:25.944Z,0.00
2023-05-05T02:42:25.916Z,0.00
2023-05-05T02:43:26.176Z,0.00
2023-05-05T02:44:25.949Z,0.00
2023-05-05T02:45:25.889Z,0.00
2023-05-05T02:46:25.894Z,0.00
2023-05-05T02:47:25.913Z,0.00
2023-05-05T02:48:25.843Z,0.00
2023-05-05T02:49:25.838Z,0.00
2023-05-05T02:50:25.884Z,0.00
2023-05-05T02:51:25.827Z,0.00
2023-05-05T02:52:25.805Z,0.00
2023-05-05T02:53:25.839Z,0.00
2023-05-05T02:54:25.772Z,0.00
2023-05-05T02:55:25.837Z,0.00
2023-05-05T02:56:25.772Z,0.00
2023-05-05T02:57:25.771Z,0.00
2023-05-05T02:58:25.748Z,0.00
2023-05-05T02:59:25.752Z,0.00
2023-05-05T03:00:25.739Z,0.00
2023-05-05T03:01:25.774Z,0.00
2023-05-05T03:02:25.775Z,0.00
2023-05-05T03:03:25.790Z,0.00
2023-05-05T03:04:25.668Z,0.00
2023-05-05T03:05:25.705Z,0.00
2023-05-05T03:06:25.649Z,0.00
2023-05-05T03:07:25.660Z,0.00
2023-05-05T03:08:25.642Z,0.00
2023-05-05T03:09:25.639Z,0.00
2023-05-05T03:10:25.614Z,0.00
2023-05-05T03:11:25.630Z,0.00
2023-05-05T03:12:25.619Z,0.00
2023-05-05T03:13:25.593Z,0.00
2023-05-05T03:14:25.551Z,0.00
2023-05-05T03:15:25.586Z,4.00
2023-05-05T03:16:25.634Z,4.00
2023-05-05T03:17:25.597Z,4.00
2023-05-05T03:18:25.513Z,0.00
2023-05-05T03:19:25.535Z,4.00
2023-05-05T03:20:25.530Z,4.00
2023-05-05T03:21:25.497Z,4.00
2023-05-05T03:22:25.474Z,4.00
2023-05-05T03:23:25.484Z,8.00
2023-05-05T03:24:25.497Z,8.00
2023-05-05T03:25:25.496Z,8.00
2023-05-05T03:26:25.482Z,8.00
2023-05-05T03:27:25.537Z,12.00
2023-05-05T03:28:25.447Z,12.00
2023-05-05T03:29:25.432Z,16.00
2023-05-05T03:30:25.393Z,16.00
2023-05-05T03:31:25.427Z,20.00
2023-05-05T03:32:25.384Z,20.00
2023-05-05T03:33:25.532Z,28.00
2023-05-05T03:34:25.347Z,32.00
2023-05-05T03:35:25.361Z,32.00
2023-05-05T03:36:27.183Z,36.00
2023-05-05T03:37:25.326Z,44.00
2023-05-05T03:38:25.314Z,48.00
2023-05-05T03:39:25.315Z,52.00
2023-05-05T03:40:36.349Z,60.00
2023-05-05T03:41:26.300Z,64.00
2023-05-05T03:42:25.274Z,72.00
2023-05-05T03:43:25.264Z,76.00
2023-05-05T03:44:25.259Z,84.00
2023-05-05T03:45:25.245Z,92.00
2023-05-05T03:46:25.247Z,100.00
2023-05-05T03:47:25.677Z,108.00
2023-05-05T03:48:25.214Z,120.00
2023-05-05T03:49:25.212Z,128.00
2023-05-05T03:50:25.188Z,136.00
2023-05-05T03:51:25.203Z,144.00
2023-05-05T03:52:25.157Z,156.00
2023-05-05T03:53:25.170Z,168.00
2023-05-05T03:54:25.139Z,176.00
2023-05-05T03:55:25.187Z,188.00
2023-05-05T03:56:25.154Z,204.00
2023-05-05T03:57:25.188Z,220.00
2023-05-05T03:58:25.136Z,236.00
2023-05-05T03:59:25.096Z,248.00
2023-05-05T04:00:25.066Z,268.00
2023-05-05T04:01:25.079Z,288.00
2023-05-05T04:02:25.138Z,308.00
2023-05-05T04:03:25.272Z,332.00
2023-05-05T04:04:25.106Z,360.00
2023-05-05T04:05:25.024Z,384.00
2023-05-05T04:06:25.038Z,412.00
2023-05-05T04:07:25.030Z,444.00
2023-05-05T04:08:25.003Z,476.00
2023-05-05T04:09:24.975Z,512.00
2023-05-05T04:10:24.977Z,544.00
2023-05-05T04:11:24.980Z,580.00
2023-05-05T04:12:24.970Z,616.00
2023-05-05T04:13:24.959Z,656.00
2023-05-05T04:14:24.970Z,696.00
2023-05-05T04:15:24.932Z,736.00
2023-05-05T04:16:24.999Z,776.00
2023-05-05T04:17:24.910Z,812.00
2023-05-05T04:18:24.908Z,844.00
2023-05-05T04:19:24.904Z,872.00
2023-05-05T04:20:24.894Z,904.00
2023-05-05T04:21:24.876Z,924.00
2023-05-05T04:22:24.859Z,944.00
2023-05-05T04:23:24.843Z,960.00
2023-05-05T04:24:24.927Z,976.00
2023-05-05T04:25:24.839Z,996.00
2023-05-05T04:26:24.816Z,1020.00
2023-05-05T04:27:24.815Z,1044.00
2023-05-05T04:28:24.997Z,1072.00
2023-05-05T04:29:24.781Z,1104.00
2023-05-05T04:30:24.803Z,1144.00
2023-05-05T04:31:24.800Z,1188.00
2023-05-05T04:32:24.791Z,1236.00
2023-05-05T04:33:24.734Z,1292.00
2023-05-05T04:34:24.730Z,1352.00
2023-05-05T04:35:24.702Z,1420.00
2023-05-05T04:36:24.696Z,1492.00
2023-05-05T04:37:24.678Z,1564.00
2023-05-05T04:38:24.721Z,1628.00
2023-05-05T04:39:24.653Z,1700.00
2023-05-05T04:40:24.665Z,1780.00
2023-05-05T04:41:24.655Z,1864.00
2023-05-05T04:42:24.654Z,1952.00
2023-05-05T04:43:24.841Z,2040.00
2023-05-05T04:44:24.654Z,2124.00
2023-05-05T04:45:24.604Z,2208.00
2023-05-05T04:46:24.633Z,2304.00
2023-05-05T04:47:24.587Z,2416.00
2023-05-05T04:48:24.581Z,2532.00
2023-05-05T04:49:24.555Z,2644.00
2023-05-05T04:50:24.544Z,2752.00
2023-05-05T04:51:24.557Z,2848.00
2023-05-05T04:52:24.551Z,2940.00
2023-05-05T04:53:28.546Z,3028.00
2023-05-05T04:54:24.515Z,3100.00
2023-05-05T04:55:24.487Z,3168.00
2023-05-05T04:56:24.503Z,3276.00
2023-05-05T04:57:24.485Z,3480.00
2023-05-05T04:58:24.470Z,3632.00
2023-05-05T04:59:24.494Z,3796.00
2023-05-05T05:00:24.449Z,3876.00
2023-05-05T05:01:24.459Z,3964.00
2023-05-05T05:02:24.543Z,4028.00
2023-05-05T05:03:24.502Z,4120.00
2023-05-05T05:04:24.417Z,4196.00
2023-05-05T05:05:24.372Z,4296.00
2023-05-05T05:06:24.388Z,4380.00
2023-05-05T05:07:24.378Z,4452.00
2023-05-05T05:08:24.361Z,4532.00
2023-05-05T05:09:24.334Z,4628.00
2023-05-05T05:10:24.347Z,4684.00
2023-05-05T05:11:24.340Z,4712.00
2023-05-05T05:12:24.331Z,4772.00
2023-05-05T05:13:24.400Z,4696.00
2023-05-05T05:14:24.303Z,4740.00
2023-05-05T05:15:24.283Z,4768.00
2023-05-05T05:16:24.300Z,5252.00
2023-05-05T05:17:24.282Z,5360.00
2023-05-05T05:18:24.256Z,4628.00
2023-05-05T05:19:24.228Z,4744.00
2023-05-05T05:20:24.238Z,5420.00
2023-05-05T05:21:24.199Z,5736.00
2023-05-05T05:22:24.217Z,5816.00
2023-05-05T05:23:24.205Z,5928.00
2023-05-05T05:24:24.206Z,6028.00
2023-05-05T05:25:24.174Z,6188.00
2023-05-05T05:26:24.169Z,6272.00
2023-05-05T05:27:24.132Z,6372.00
2023-05-05T05:28:24.143Z,6160.00
2023-05-05T05:29:24.156Z,6348.00
2023-05-05T05:30:24.436Z,6712.00
2023-05-05T05:31:24.118Z,6860.00
2023-05-05T05:32:24.115Z,6268.00
2023-05-05T05:33:24.266Z,5736.00
2023-05-05T05:34:24.114Z,5628.00
2023-05-05T05:35:24.063Z,5552.00
2023-05-05T05:36:24.062Z,6148.00
2023-05-05T05:37:24.036Z,6072.00
2023-05-05T05:38:24.080Z,6016.00
2023-05-05T05:39:24.023Z,4888.00
2023-05-05T05:40:24.014Z,5500.00
2023-05-05T05:41:24.006Z,4652.00
2023-05-05T05:42:23.985Z,4216.00
2023-05-05T05:43:24.157Z,3940.00
2023-05-05T05:44:24.021Z,3992.00
2023-05-05T05:45:23.956Z,3540.00
2023-05-05T05:46:24.005Z,3388.00
2023-05-05T05:47:23.974Z,3264.00
2023-05-05T05:48:23.931Z,3160.00
2023-05-05T05:49:23.893Z,3060.00
2023-05-05T05:50:24.031Z,2968.00
2023-05-05T05:51:23.895Z,2892.00
2023-05-05T05:52:23.907Z,2804.00
2023-05-05T05:53:24.110Z,2716.00
2023-05-05T05:54:23.905Z,2628.00
2023-05-05T05:55:23.852Z,2540.00
2023-05-05T05:56:23.874Z,2452.00
2023-05-05T05:57:23.812Z,2380.00
2023-05-05T05:58:23.832Z,2336.00
2023-05-05T05:59:23.790Z,2332.00
2023-05-05T06:00:23.792Z,2368.00
2023-05-05T06:01:23.870Z,2448.00
2023-05-05T06:02:23.802Z,2568.00
2023-05-05T06:03:24.103Z,2724.00
2023-05-05T06:04:23.816Z,2912.00
2023-05-05T06:05:23.747Z,3128.00
2023-05-05T06:06:23.750Z,3396.00
2023-05-05T06:07:23.725Z,3628.00
2023-05-05T06:08:25.061Z,3800.00
2023-05-05T06:09:23.688Z,3944.00
2023-05-05T06:10:28.068Z,4096.00
2023-05-05T06:11:23.683Z,4232.00
2023-05-05T06:12:23.665Z,4356.00
2023-05-05T06:13:23.655Z,4524.00
2023-05-05T06:14:23.667Z,4776.00
2023-05-05T06:15:23.613Z,5304.00
2023-05-05T06:16:23.669Z,5348.00
2023-05-05T06:17:23.606Z,5516.00
2023-05-05T06:18:23.672Z,5872.00
2023-05-05T06:19:23.603Z,6272.00
2023-05-05T06:20:23.587Z,6652.00
2023-05-05T06:21:23.569Z,6988.00
2023-05-05T06:22:23.565Z,7260.00
2023-05-05T06:23:23.528Z,7556.00
2023-05-05T06:24:23.568Z,7788.00
2023-05-05T06:25:23.535Z,7940.00
2023-05-05T06:26:23.521Z,7932.00
2023-05-05T06:27:23.489Z,7868.00
2023-05-05T06:28:23.500Z,7840.00
2023-05-05T06:29:23.470Z,7736.00
2023-05-05T06:30:23.470Z,7668.00
2023-05-05T06:31:23.524Z,7656.00
2023-05-05T06:32:23.530Z,8452.00
2023-05-05T06:33:23.440Z,8064.00
2023-05-05T06:34:23.430Z,7116.00
2023-05-05T06:35:23.419Z,6160.00
2023-05-05T06:36:23.492Z,6536.00
2023-05-05T06:37:23.377Z,6204.00
2023-05-05T06:38:23.397Z,5828.00
2023-05-05T06:39:23.367Z,4628.00
2023-05-05T06:40:23.366Z,4248.00
2023-05-05T06:41:23.358Z,4128.00
2023-05-05T06:42:23.348Z,3704.00
2023-05-05T06:43:23.337Z,3528.00
2023-05-05T06:44:23.317Z,3384.00
2023-05-05T06:45:23.309Z,3328.00
2023-05-05T06:46:23.333Z,3240.00
2023-05-05T06:47:23.293Z,3176.00
2023-05-05T06:48:23.288Z,3164.00
2023-05-05T06:49:23.276Z,3164.00
2023-05-05T06:50:23.280Z,3136.00
2023-05-05T06:51:23.236Z,3084.00
2023-05-05T06:52:23.255Z,3012.00
2023-05-05T06:53:23.236Z,2980.00
2023-05-05T06:54:23.224Z,2892.00
2023-05-05T06:55:23.201Z,2712.00
2023-05-05T06:56:23.221Z,2424.00
2023-05-05T06:57:23.178Z,2104.00
2023-05-05T06:58:23.164Z,1808.00
2023-05-05T06:59:23.180Z,1572.00
2023-05-05T07:00:23.138Z,1448.00
2023-05-05T07:01:23.250Z,1380.00
2023-05-05T07:02:25.292Z,1328.00
2023-05-05T07:03:23.244Z,1352.00
2023-05-05T07:04:23.134Z,1400.00
2023-05-05T07:05:23.088Z,1464.00
2023-05-05T07:06:23.111Z,1576.00
2023-05-05T07:07:23.081Z,1708.00
2023-05-05T07:08:23.074Z,1832.00
2023-05-05T07:09:23.027Z,1940.00
2023-05-05T07:11:22.287Z,2020.00
2023-05-05T07:12:22.137Z,2056.00
2023-05-05T07:13:22.905Z,2104.00
2023-05-05T07:14:24.269Z,2156.00
2023-05-05T07:15:28.733Z,2204.00
2023-05-05T07:16:23.121Z,2224.00
2023-05-05T07:17:22.094Z,2248.00
2023-05-05T07:18:22.085Z,2292.00
2023-05-05T07:19:22.059Z,2336.00
2023-05-05T07:20:22.078Z,2392.00
2023-05-05T07:21:22.053Z,2496.00
2023-05-05T07:22:22.056Z,2600.00
2023-05-05T07:23:22.021Z,2804.00
2023-05-05T07:24:21.999Z,3124.00
2023-05-05T07:25:22.020Z,3544.00
2023-05-05T07:26:21.964Z,4024.00
2023-05-05T07:27:21.979Z,4588.00
2023-05-05T07:28:21.967Z,5212.00
2023-05-05T07:29:21.949Z,5768.00
2023-05-05T07:30:22.113Z,6312.00
2023-05-05T07:31:21.970Z,6704.00
2023-05-05T07:32:21.978Z,7076.00
2023-05-05T07:33:21.925Z,7500.00
2023-05-05T07:34:22.139Z,7836.00
2023-05-05T07:35:21.908Z,8076.00
2023-05-05T07:36:21.886Z,8316.00
2023-05-05T07:37:21.884Z,8472.00
2023-05-05T07:38:21.846Z,8520.00
2023-05-05T07:39:21.861Z,8416.00
2023-05-05T07:40:21.851Z,8432.00
2023-05-05T07:41:21.836Z,8540.00
2023-05-05T07:42:21.812Z,8980.00
2023-05-05T07:43:21.846Z,9420.00
2023-05-05T07:44:21.812Z,9448.00
2023-05-05T07:45:21.784Z,9020.00
2023-05-05T07:46:21.797Z,8516.00
2023-05-05T07:47:21.890Z,8008.00
2023-05-05T07:48:21.746Z,7452.00
2023-05-05T07:49:21.780Z,7196.00
2023-05-05T07:50:21.729Z,7252.00
2023-05-05T07:51:21.698Z,7512.00
2023-05-05T07:52:30.072Z,8116.00
2023-05-05T07:53:22.702Z,8852.00
2023-05-05T07:54:21.674Z,9392.00
2023-05-05T07:55:21.688Z,9568.00
2023-05-05T07:56:21.883Z,9584.00
2023-05-05T07:57:21.668Z,9392.00
2023-05-05T07:58:21.660Z,8892.00
2023-05-05T07:59:21.652Z,8364.00
2023-05-05T08:00:21.632Z,8152.00
2023-05-05T08:01:21.624Z,7964.00
2023-05-05T08:02:21.647Z,8076.00
2023-05-05T08:03:21.732Z,8176.00
2023-05-05T08:04:21.648Z,8304.00
2023-05-05T08:05:21.614Z,8412.00
2023-05-05T08:06:21.532Z,8484.00
2023-05-05T08:07:21.545Z,8664.00
2023-05-05T08:08:21.546Z,8872.00
2023-05-05T08:09:21.535Z,8952.00
2023-05-05T08:10:21.501Z,9100.00
2023-05-05T08:11:21.512Z,9372.00
2023-05-05T08:12:21.494Z,9756.00
2023-05-05T08:13:21.491Z,10168.00
2023-05-05T08:14:21.462Z,10452.00
2023-05-05T08:15:21.460Z,10492.00
2023-05-05T08:16:21.470Z,10388.00
2023-05-05T08:17:21.510Z,10324.00
2023-05-05T08:18:21.413Z,10368.00
2023-05-05T08:19:28.759Z,10340.00
2023-05-05T08:20:22.424Z,10256.00
2023-05-05T08:21:21.401Z,10292.00
2023-05-05T08:22:21.372Z,10368.00
2023-05-05T08:23:21.389Z,10564.00
2023-05-05T08:24:21.375Z,10780.00
2023-05-05T08:25:21.350Z,10896.00
2023-05-05T08:26:21.349Z,10876.00
2023-05-05T08:27:21.332Z,10812.00
2023-05-05T08:28:21.326Z,10712.00
2023-05-05T08:29:21.306Z,10580.00
2023-05-05T08:30:21.276Z,10436.00
2023-05-05T08:31:21.358Z,10316.00
2023-05-05T08:32:21.286Z,10208.00
2023-05-05T08:33:21.271Z,10080.00
2023-05-05T08:34:21.279Z,10364.00
2023-05-05T08:35:21.260Z,9828.00
2023-05-05T08:36:21.778Z,9824.00
2023-05-05T08:37:21.238Z,9876.00
2023-05-05T08:38:21.201Z,9940.00
2023-05-05T08:39:21.232Z,10156.00
2023-05-05T08:40:21.421Z,10528.00
2023-05-05T08:41:21.191Z,10816.00
2023-05-05T08:42:33.297Z,10900.00
2023-05-05T08:43:22.168Z,10868.00
2023-05-05T08:44:21.140Z,10900.00
2023-05-05T08:45:21.132Z,11036.00
2023-05-05T08:46:21.150Z,11268.00
2023-05-05T08:47:21.114Z,11692.00
2023-05-05T08:48:21.099Z,12188.00
2023-05-05T08:49:21.106Z,12652.00
2023-05-05T08:50:21.082Z,12980.00
2023-05-05T08:51:21.088Z,13212.00
2023-05-05T08:52:21.092Z,13452.00
2023-05-05T08:53:21.061Z,13740.00
2023-05-05T08:54:21.052Z,14100.00
2023-05-05T08:55:21.060Z,14452.00
2023-05-05T08:56:20.995Z,14980.00
2023-05-05T08:57:21.031Z,16672.00
2023-05-05T08:58:20.981Z,16064.00
2023-05-05T08:59:20.994Z,16064.00
2023-05-05T09:00:21.005Z,16192.00
2023-05-05T09:01:21.041Z,15872.00
2023-05-05T09:02:20.963Z,16800.00
2023-05-05T09:03:20.967Z,16800.00
2023-05-05T09:04:20.929Z,16512.00
2023-05-05T09:05:20.912Z,16608.00
2023-05-05T09:06:20.921Z,16768.00
2023-05-05T09:07:20.929Z,17600.00
2023-05-05T09:08:20.871Z,17888.00
2023-05-05T09:09:20.889Z,17376.00
2023-05-05T09:10:20.861Z,17568.00
2023-05-05T09:11:20.872Z,18496.00
2023-05-05T09:12:20.829Z,18528.00
2023-05-05T09:13:20.888Z,18624.00
2023-05-05T09:14:20.833Z,19136.00
2023-05-05T09:15:20.827Z,18880.00
2023-05-05T09:16:20.802Z,18496.00
2023-05-05T09:17:20.799Z,18112.00
2023-05-05T09:18:20.790Z,18112.00
2023-05-05T09:19:20.791Z,17888.00
2023-05-05T09:20:20.809Z,17888.00
2023-05-05T09:21:20.746Z,17920.00
2023-05-05T09:22:20.742Z,17888.00
2023-05-05T09:23:20.750Z,17888.00
2023-05-05T09:24:20.718Z,17504.00
2023-05-05T09:25:20.752Z,17120.00
2023-05-05T09:26:20.703Z,16640.00
2023-05-05T09:27:20.711Z,16768.00
2023-05-05T09:28:20.671Z,17152.00
2023-05-05T09:29:20.655Z,17280.00
2023-05-05T09:30:20.703Z,16992.00
2023-05-05T09:31:20.688Z,17408.00
2023-05-05T09:32:20.633Z,18400.00
2023-05-05T09:33:20.645Z,18400.00
2023-05-05T09:34:20.608Z,18336.00
2023-05-05T09:35:20.602Z,18112.00
2023-05-05T09:36:20.587Z,18400.00
2023-05-05T09:37:20.607Z,19072.00
2023-05-05T09:38:20.728Z,19104.00
2023-05-05T09:39:20.595Z,19488.00
2023-05-05T09:40:20.711Z,18912.00
2023-05-05T09:41:20.528Z,17600.00
2023-05-05T09:42:20.517Z,17888.00
2023-05-05T09:43:20.517Z,17664.00
2023-05-05T09:44:20.509Z,17120.00
2023-05-05T09:45:20.500Z,17216.00
2023-05-05T09:46:20.521Z,18112.00
2023-05-05T09:47:29.282Z,18112.00
2023-05-05T09:48:21.476Z,18848.00
2023-05-05T09:49:20.567Z,19552.00
2023-05-05T09:50:20.528Z,19456.00
2023-05-05T09:51:20.442Z,19328.00
2023-05-05T09:52:20.411Z,19264.00
2023-05-05T09:53:20.405Z,18336.00
2023-05-05T09:54:20.391Z,19104.00
2023-05-05T09:55:20.398Z,19648.00
2023-05-05T09:56:20.732Z,19712.00
2023-05-05T09:57:20.394Z,19680.00
2023-05-05T09:58:20.406Z,19296.00
2023-05-05T09:59:20.353Z,18912.00
2023-05-05T10:00:20.344Z,17888.00
2023-05-05T10:01:20.821Z,17472.00
2023-05-05T10:02:20.293Z,18624.00
2023-05-05T10:03:20.305Z,19104.00
2023-05-05T10:04:20.282Z,18368.00
2023-05-05T10:05:20.317Z,17152.00
2023-05-05T10:06:20.256Z,17568.00
2023-05-05T10:07:20.254Z,19712.00
2023-05-05T10:08:20.248Z,19328.00
2023-05-05T10:09:20.276Z,19648.00
2023-05-05T10:10:20.246Z,19072.00
2023-05-05T10:11:20.218Z,19072.00
2023-05-05T10:12:20.210Z,19200.00
2023-05-05T10:13:20.234Z,19392.00
2023-05-05T10:14:20.177Z,19424.00
2023-05-05T10:15:20.162Z,19200.00
2023-05-05T10:16:20.228Z,19552.00
2023-05-05T10:17:20.164Z,19520.00
2023-05-05T10:18:20.163Z,19520.00
2023-05-05T10:19:20.125Z,20032.00
2023-05-05T10:20:20.123Z,20256.00
2023-05-05T10:21:20.136Z,21440.00
2023-05-05T10:22:20.093Z,22400.00
2023-05-05T10:23:20.108Z,23104.00
2023-05-05T10:24:20.096Z,23424.00
2023-05-05T10:25:20.064Z,23488.00
2023-05-05T10:26:20.065Z,23648.00
2023-05-05T10:27:20.037Z,23040.00
2023-05-05T10:28:20.014Z,22720.00
2023-05-05T10:29:20.053Z,22656.00
2023-05-05T10:30:20.020Z,22432.00
2023-05-05T10:31:25.105Z,21120.00
2023-05-05T10:32:47.053Z,21952.00
2023-05-05T10:34:19.994Z,21664.00
2023-05-05T10:35:19.967Z,22880.00
2023-05-05T10:36:19.945Z,23840.00
2023-05-05T10:37:19.945Z,21696.00
2023-05-05T10:38:19.906Z,22624.00
2023-05-05T10:39:19.966Z,23424.00
2023-05-05T10:40:19.993Z,24064.00
2023-05-05T10:41:19.912Z,23456.00
2023-05-05T10:42:19.896Z,22784.00
2023-05-05T10:43:19.893Z,22976.00
2023-05-05T10:44:19.879Z,23872.00
2023-05-05T10:45:19.955Z,24352.00
2023-05-05T10:46:19.887Z,24416.00
2023-05-05T10:47:19.874Z,24704.00
2023-05-05T10:48:19.887Z,26400.00
2023-05-05T10:49:19.836Z,27808.00
2023-05-05T10:50:19.811Z,27168.00
2023-05-05T10:51:31.016Z,26656.00
2023-05-05T10:52:20.797Z,26464.00
2023-05-05T10:53:19.767Z,26048.00
2023-05-05T10:54:19.810Z,25504.00
2023-05-05T10:55:19.759Z,26816.00
2023-05-05T10:56:19.751Z,23552.00
2023-05-05T10:57:19.745Z,24192.00
2023-05-05T10:58:19.730Z,24096.00
2023-05-05T10:59:19.721Z,22848.00
2023-05-05T11:00:19.758Z,25248.00
2023-05-05T11:01:19.705Z,27232.00
2023-05-05T11:02:19.681Z,27648.00
2023-05-05T11:03:19.767Z,26240.00
2023-05-05T11:04:19.674Z,22400.00
2023-05-05T11:05:19.644Z,24128.00
2023-05-05T11:06:19.654Z,30976.00
2023-05-05T11:07:19.625Z,31264.00
2023-05-05T11:08:19.632Z,33984.00
2023-05-05T11:09:19.602Z,36096.00
2023-05-05T11:10:19.605Z,34272.00
2023-05-05T11:11:19.659Z,38784.00
2023-05-05T11:12:19.596Z,38944.00
2023-05-05T11:13:19.674Z,38656.00
2023-05-05T11:14:19.575Z,38880.00
2023-05-05T11:15:19.532Z,41376.00
2023-05-05T11:16:19.557Z,40352.00
2023-05-05T11:17:19.552Z,39488.00
2023-05-05T11:18:19.530Z,40640.00
2023-05-05T11:19:19.482Z,42336.00
2023-05-05T11:20:19.502Z,42688.00
2023-05-05T11:21:19.476Z,42976.00
2023-05-05T11:22:19.488Z,41824.00
2023-05-05T11:23:19.445Z,42912.00
2023-05-05T11:24:19.464Z,44832.00
2023-05-05T11:25:19.442Z,45728.00
2023-05-05T11:26:19.449Z,44672.00
2023-05-05T11:27:19.402Z,45056.00
2023-05-05T11:28:19.418Z,45088.00
2023-05-05T11:29:19.386Z,44192.00
2023-05-05T11:30:19.385Z,45504.00
2023-05-05T11:31:19.450Z,45760.00
2023-05-05T11:32:19.369Z,46592.00
2023-05-05T11:33:19.358Z,49024.00
2023-05-05T11:34:19.353Z,49920.00
2023-05-05T11:35:19.325Z,49536.00
2023-05-05T11:36:19.347Z,47776.00
2023-05-05T11:37:19.359Z,42336.00
2023-05-05T11:38:19.319Z,49120.00
2023-05-05T11:39:19.303Z,50944.00
2023-05-05T11:40:19.332Z,53632.00
2023-05-05T11:41:19.276Z,48384.00
2023-05-05T11:42:19.395Z,45152.00
2023-05-05T11:43:19.254Z,50240.00
2023-05-05T11:44:19.270Z,48288.00
2023-05-05T11:45:19.226Z,48352.00
2023-05-05T11:46:19.273Z,40800.00
2023-05-05T11:47:19.288Z,47040.00
2023-05-05T11:48:19.240Z,49632.00
2023-05-05T11:49:19.204Z,52992.00
2023-05-05T11:50:19.214Z,51552.00
2023-05-05T11:51:19.191Z,50176.00
2023-05-05T11:52:19.169Z,50208.00
2023-05-05T11:53:19.145Z,48736.00
2023-05-05T11:54:19.143Z,52320.00
2023-05-05T11:55:19.117Z,52448.00
2023-05-05T11:56:19.407Z,54656.00
2023-05-05T11:57:19.100Z,51904.00
2023-05-05T11:58:19.117Z,50656.00
2023-05-05T11:59:19.094Z,57856.00
2023-05-05T12:00:19.097Z,57920.00
2023-05-05T12:01:19.065Z,56512.00
2023-05-05T12:02:19.116Z,53120.00
2023-05-05T12:03:19.151Z,53408.00
2023-05-05T12:04:19.069Z,49984.00
2023-05-05T12:05:19.034Z,51072.00
2023-05-05T12:06:19.030Z,51520.00
2023-05-05T12:07:19.014Z,50944.00
2023-05-05T12:08:19.018Z,49728.00
2023-05-05T12:09:19.003Z,53888.00
2023-05-05T12:10:18.990Z,53600.00
2023-05-05T12:11:18.972Z,50816.00
2023-05-05T12:12:18.999Z,53024.00
2023-05-05T12:13:19.118Z,54720.00
2023-05-05T12:14:19.007Z,60000.00
2023-05-05T12:15:18.928Z,57664.00
2023-05-05T12:16:18.961Z,46560.00
2023-05-05T12:17:18.904Z,55872.00
2023-05-05T12:18:18.907Z,58944.00
2023-05-05T12:19:18.888Z,28288.00
2023-05-05T12:20:18.886Z,28768.00
2023-05-05T12:21:18.857Z,29024.00